Disclaimer

Please do not use the information listed here in-flight or in-navigation, as they are not provided to us by the airports but are provided by volunteers, so they might be outdated.

Search


Regions


Airport information page

No radio frequency information is available.

Airport informations:
Latitude: 31° 32' 52.45" S
Longitude: 028° 40' 27.44" E
Elevation: 2400 feet - 732 meters
Operating hours: From sunrise to sunset (SR-SS)
Operating agency: Civil government, landing fees and diplomatic clearance may be required
Timezone: UTC+2
Fuel: Jet A1, without icing nhibitor.

100/130 MIL Spec, low lead, aviation gasoline (BLUE)

Runway information:
09/27 - 4921 x 98 feet< - >1500 x 30 meters
14/32 - 6562 x 75 feet< - >2000 x 23 meters

Recent METARs:
FAUT 160100Z AUTO 15004KT //// // ////// 19/19 Q1020
FAUT 160200Z AUTO 11003KT //// // ////// 19/19 Q1020
FAUT 160200Z AUTO 11003KT //// // ////// 19/19 Q1020

Airport on the map: